Bonnard, Canada
Current Conditions -  °F | °C
As of 3:00 AM on Monday 24 Nov 2014 (Local Time) from CYRJ Reporting Station
Overcast Overcast  
Wind Chill: 27°   Ceiling: 1000
Heat Index: 34°   Visibility: 20mi
Dew Point: 32°   Wind: 8mph
Humidity: 93%   Direction: 130°SE
Pressure: 29.81"   Gusts: NA
Location:  50.73°N, 71.02°W
Report Text: CYRJ 240800Z 13007KT 20SM OVC010 01/00 A2981 RMK ST8 PRESFR SLP103
Loading
Personal Weather Stations






























Interactive Weather Map New forecast layout! Learn more

10-Day Weather Forecast

Advertisements
Track Severe Weather on mobile